createdAt,value
2022-08-28T00:01:02.179Z,52.72
2022-08-28T00:03:32.812Z,57.00
2022-08-28T00:06:03.075Z,55.35
2022-08-28T00:08:30.762Z,54.65
2022-08-28T00:10:58.384Z,54.20
2022-08-28T00:13:29.319Z,49.45
2022-08-28T00:16:01.068Z,51.75
2022-08-28T00:18:31.331Z,47.38
2022-08-28T00:21:01.959Z,47.30
2022-08-28T00:23:32.913Z,48.20
2022-08-28T00:26:31.890Z,54.72
2022-08-28T00:29:03.079Z,51.10
2022-08-28T00:31:34.148Z,51.10
2022-08-28T00:34:03.179Z,56.05
2022-08-28T00:36:30.693Z,53.97
2022-08-28T00:39:01.245Z,59.15
2022-08-28T00:41:31.367Z,56.85
2022-08-28T00:44:20.271Z,54.25
2022-08-28T00:46:50.825Z,63.40
2022-08-28T00:49:22.759Z,59.65
2022-08-28T00:52:12.800Z,57.03
2022-08-28T00:54:59.059Z,59.22
2022-08-28T00:57:53.351Z,67.05
2022-08-28T01:00:25.747Z,65.95
2022-08-28T01:02:53.879Z,61.58
2022-08-28T01:05:29.051Z,65.07
2022-08-28T01:07:58.980Z,65.82
2022-08-28T01:10:29.494Z,70.65
2022-08-28T01:13:00.500Z,62.22
2022-08-28T01:15:36.132Z,68.05
2022-08-28T01:18:09.067Z,69.38
2022-08-28T01:20:42.680Z,74.03
2022-08-28T01:23:38.091Z,69.60
2022-08-28T01:26:10.905Z,73.20
2022-08-28T01:28:40.442Z,73.47
2022-08-28T01:31:13.592Z,80.85
2022-08-28T01:33:45.722Z,77.70
2022-08-28T01:36:15.007Z,70.85
2022-08-28T01:38:45.438Z,73.18
2022-08-28T01:41:14.127Z,79.60
2022-08-28T01:43:43.054Z,75.13
2022-08-28T01:46:12.688Z,73.57
2022-08-28T01:48:43.461Z,77.25
2022-08-28T01:51:12.546Z,72.82
2022-08-28T01:53:42.102Z,76.15
2022-08-28T01:56:16.624Z,75.35
2022-08-28T01:58:44.981Z,74.47
2022-08-28T02:01:15.654Z,71.75
2022-08-28T02:03:43.696Z,76.43
2022-08-28T02:06:12.278Z,67.57
2022-08-28T02:08:39.787Z,81.30
2022-08-28T02:11:08.979Z,75.03
2022-08-28T02:13:43.844Z,78.80
2022-08-28T02:16:11.641Z,73.95
2022-08-28T02:18:39.339Z,67.05
2022-08-28T02:21:08.398Z,67.20
2022-08-28T02:23:39.094Z,66.13
2022-08-28T02:26:07.489Z,64.38
2022-08-28T02:28:35.068Z,67.22
2022-08-28T02:31:02.698Z,70.90
2022-08-28T02:33:32.900Z,66.68
2022-08-28T02:36:00.483Z,66.40
2022-08-28T02:38:28.614Z,65.55
2022-08-28T02:40:58.847Z,60.05
2022-08-28T02:43:26.510Z,58.50
2022-08-28T02:45:54.229Z,62.15
2022-08-28T02:48:21.816Z,59.58
2022-08-28T02:50:49.942Z,58.80
2022-08-28T02:53:18.122Z,58.60
2022-08-28T02:55:48.791Z,57.13
2022-08-28T02:58:16.379Z,60.50
2022-08-28T03:00:44.093Z,62.55
2022-08-28T03:03:11.573Z,58.50
2022-08-28T03:05:39.109Z,51.22
2022-08-28T03:08:06.804Z,51.58
2022-08-28T03:10:34.446Z,56.75
2022-08-28T03:13:04.461Z,58.00
2022-08-28T03:15:32.255Z,61.38
2022-08-28T03:17:59.827Z,61.58
2022-08-28T03:20:30.302Z,54.75
2022-08-28T03:23:16.288Z,64.43
2022-08-28T03:25:43.840Z,61.78
2022-08-28T03:28:12.238Z,57.92
2022-08-28T03:30:40.102Z,57.38
2022-08-28T03:33:07.643Z,55.55
2022-08-28T03:35:38.189Z,53.55
2022-08-28T03:38:05.754Z,59.42
2022-08-28T03:40:33.491Z,60.53
2022-08-28T03:43:01.965Z,51.95
2022-08-28T03:45:29.608Z,58.20
2022-08-28T03:47:57.418Z,55.95
2022-08-28T03:50:25.455Z,57.53
2022-08-28T03:52:56.076Z,62.22
2022-08-28T03:55:26.027Z,58.35
2022-08-28T03:57:54.026Z,55.38
2022-08-28T04:00:21.552Z,54.17
2022-08-28T04:02:49.079Z,52.13
2022-08-28T04:05:17.663Z,54.28
2022-08-28T04:07:45.447Z,53.70
2022-08-28T04:10:13.744Z,56.45
2022-08-28T04:12:41.351Z,53.03
2022-08-28T04:15:09.690Z,60.38
2022-08-28T04:17:41.256Z,58.20
2022-08-28T04:20:09.734Z,52.88
2022-08-28T04:22:40.037Z,54.85
2022-08-28T04:25:08.134Z,53.08
2022-08-28T04:27:35.863Z,52.85
2022-08-28T04:30:04.533Z,58.88
2022-08-28T04:32:38.367Z,56.40
2022-08-28T04:35:09.748Z,56.88
2022-08-28T04:37:37.643Z,59.47
2022-08-28T04:40:08.678Z,53.35
2022-08-28T04:42:37.437Z,58.45
2022-08-28T04:45:06.403Z,56.17
2022-08-28T04:47:38.949Z,56.38
2022-08-28T04:50:07.749Z,51.97
2022-08-28T04:52:35.432Z,58.00
2022-08-28T04:55:04.065Z,56.00
2022-08-28T04:57:35.782Z,65.05
2022-08-28T05:00:06.838Z,57.50
2022-08-28T05:02:34.535Z,55.08
2022-08-28T05:05:03.371Z,62.05
2022-08-28T05:07:31.337Z,67.70
2022-08-28T05:09:58.991Z,65.05
2022-08-28T05:12:28.098Z,56.70
2022-08-28T05:14:56.049Z,54.30
2022-08-28T05:17:23.729Z,63.45
2022-08-28T05:19:54.373Z,61.88
2022-08-28T05:22:22.035Z,61.45
2022-08-28T05:24:49.595Z,61.58
2022-08-28T05:27:17.084Z,58.88
2022-08-28T05:29:44.664Z,55.53
2022-08-28T05:32:14.821Z,58.67
2022-08-28T05:34:42.623Z,55.15
2022-08-28T05:37:10.290Z,69.55
2022-08-28T05:39:37.756Z,53.78
2022-08-28T05:42:05.753Z,57.05
2022-08-28T05:44:35.289Z,57.03
2022-08-28T05:47:03.065Z,56.95
2022-08-28T05:49:30.660Z,61.63
2022-08-28T05:51:58.864Z,60.08
2022-08-28T05:54:28.963Z,70.20
2022-08-28T05:56:56.716Z,56.65
2022-08-28T05:59:25.658Z,60.05
2022-08-28T06:01:53.279Z,58.90
2022-08-28T06:04:27.162Z,62.03
2022-08-28T06:06:55.524Z,64.70
2022-08-28T06:09:29.709Z,58.30
2022-08-28T06:12:01.738Z,51.35
2022-08-28T06:14:31.341Z,56.35
2022-08-28T06:17:00.242Z,51.20
2022-08-28T06:19:31.011Z,60.63
2022-08-28T06:22:01.031Z,60.47
2022-08-28T06:24:35.266Z,56.28
2022-08-28T06:27:02.906Z,57.22
2022-08-28T06:29:30.811Z,52.20
2022-08-28T06:32:01.274Z,57.00
2022-08-28T06:34:29.638Z,61.53
2022-08-28T06:36:57.243Z,49.10
2022-08-28T06:39:25.011Z,56.53
2022-08-28T06:41:53.818Z,57.20
2022-08-28T06:44:23.929Z,54.05
2022-08-28T06:46:53.762Z,62.33
2022-08-28T06:49:21.693Z,55.28
2022-08-28T06:51:49.876Z,59.15
2022-08-28T06:54:22.374Z,56.35
2022-08-28T06:56:55.596Z,56.60
2022-08-28T06:59:24.938Z,53.83
2022-08-28T07:01:55.521Z,63.58
2022-08-28T07:04:23.239Z,53.97
2022-08-28T07:06:54.072Z,52.42
2022-08-28T07:09:24.371Z,51.00
2022-08-28T07:11:52.607Z,58.17
2022-08-28T07:14:20.124Z,47.03
2022-08-28T07:16:47.767Z,48.47
2022-08-28T07:19:15.796Z,46.63
2022-08-28T07:21:45.864Z,48.20
2022-08-28T07:24:17.733Z,53.63
2022-08-28T07:26:47.230Z,55.50
2022-08-28T07:29:15.532Z,54.95
2022-08-28T07:31:53.342Z,54.10
2022-08-28T07:34:27.127Z,63.22
2022-08-28T07:36:56.429Z,57.55
2022-08-28T07:39:24.020Z,62.00
2022-08-28T07:41:51.562Z,61.45
2022-08-28T07:44:37.986Z,57.28
2022-08-28T07:47:08.731Z,66.60
2022-08-28T07:49:36.635Z,61.50
2022-08-28T07:52:07.819Z,66.70
2022-08-28T07:54:38.906Z,61.25
2022-08-28T07:57:09.952Z,65.90
2022-08-28T07:59:38.949Z,66.32
2022-08-28T08:02:07.230Z,63.90
2022-08-28T08:04:35.364Z,67.32
2022-08-28T08:07:04.924Z,61.38
2022-08-28T08:09:37.484Z,54.78
2022-08-28T08:12:05.718Z,58.22
2022-08-28T08:14:40.196Z,59.97
2022-08-28T08:17:08.458Z,56.03
2022-08-28T08:19:36.067Z,55.17
2022-08-28T08:22:03.685Z,52.30
2022-08-28T08:24:31.259Z,50.35
2022-08-28T08:27:01.229Z,46.17
2022-08-28T08:29:35.984Z,59.00
2022-08-28T08:32:07.990Z,57.47
2022-08-28T08:34:40.781Z,54.58
2022-08-28T08:37:08.472Z,58.65
2022-08-28T08:39:41.651Z,64.90
2022-08-28T08:42:25.536Z,55.40
2022-08-28T08:44:56.518Z,57.55
2022-08-28T08:47:32.802Z,56.95
2022-08-28T08:50:03.744Z,58.70
2022-08-28T08:52:37.078Z,50.75
2022-08-28T08:55:25.018Z,47.67
2022-08-28T08:58:16.594Z,46.23
2022-08-28T09:00:52.757Z,48.53
2022-08-28T09:03:25.174Z,45.28
2022-08-28T09:05:58.285Z,43.25
2022-08-28T09:08:42.533Z,41.50
2022-08-28T09:11:38.947Z,54.83
2022-08-28T09:14:33.070Z,39.60
2022-08-28T09:17:01.823Z,47.35
2022-08-28T09:19:30.176Z,41.60
2022-08-28T09:21:57.711Z,37.88
2022-08-28T09:24:29.557Z,38.20
2022-08-28T09:27:26.450Z,48.03
2022-08-28T09:30:08.061Z,38.50
2022-08-28T09:32:36.241Z,43.70
2022-08-28T09:35:14.447Z,41.90
2022-08-28T09:37:44.047Z,44.13
2022-08-28T09:40:19.772Z,44.28
2022-08-28T09:43:20.010Z,41.63
2022-08-28T09:46:28.200Z,40.60
2022-08-28T09:49:09.878Z,36.63
2022-08-28T09:51:39.433Z,33.50
2022-08-28T09:54:17.003Z,32.53
2022-08-28T09:56:48.788Z,31.25
2022-08-28T09:59:22.499Z,28.33
2022-08-28T10:02:10.651Z,23.85
2022-08-28T10:04:55.303Z,22.35
2022-08-28T10:07:41.722Z,22.35
2022-08-28T10:10:12.030Z,19.73
2022-08-28T10:13:01.590Z,20.70
2022-08-28T10:16:03.628Z,23.63
2022-08-28T10:18:43.646Z,20.35
2022-08-28T10:21:47.804Z,21.50
2022-08-28T10:24:27.740Z,16.05
2022-08-28T10:27:16.471Z,16.77
2022-08-28T10:29:55.806Z,11.82
2022-08-28T10:32:43.179Z,10.25
2022-08-28T10:35:40.198Z,14.77
2022-08-28T10:38:25.246Z,15.60
2022-08-28T10:41:17.042Z,13.43
2022-08-28T10:43:47.955Z,17.38
2022-08-28T10:46:27.021Z,11.95
2022-08-28T10:49:02.281Z,15.32
2022-08-28T10:54:39.636Z,13.48
2022-08-28T10:57:31.102Z,12.70
2022-08-28T11:00:03.240Z,14.77
2022-08-28T11:02:33.021Z,21.30
2022-08-28T11:05:00.943Z,14.13
2022-08-28T11:07:35.112Z,15.15
2022-08-28T11:10:38.841Z,10.73
2022-08-28T11:13:09.726Z,13.80
2022-08-28T11:15:55.729Z,16.63
2022-08-28T11:18:46.886Z,14.07
2022-08-28T11:21:24.950Z,16.20
2022-08-28T11:24:31.353Z,13.02
2022-08-28T11:27:04.850Z,13.30
2022-08-28T11:30:02.968Z,20.52
2022-08-28T11:32:32.668Z,16.05
2022-08-28T11:35:04.385Z,18.80
2022-08-28T11:37:47.046Z,15.38
2022-08-28T11:40:32.977Z,15.48
2022-08-28T11:43:16.160Z,13.52
2022-08-28T11:45:47.846Z,12.40
2022-08-28T11:48:33.711Z,19.00
2022-08-28T11:51:26.365Z,15.35
2022-08-28T11:54:09.337Z,14.80
2022-08-28T11:57:01.984Z,12.57
2022-08-28T11:59:44.661Z,14.98
2022-08-28T12:02:39.918Z,15.93
2022-08-28T12:05:15.224Z,24.25
2022-08-28T12:07:49.275Z,22.17
2022-08-28T12:10:22.955Z,15.20
2022-08-28T12:13:08.229Z,17.85
2022-08-28T12:15:35.870Z,21.42
2022-08-28T12:18:03.317Z,17.80
2022-08-28T12:20:54.319Z,17.52
2022-08-28T12:23:34.806Z,21.23
2022-08-28T12:26:06.006Z,17.95
2022-08-28T12:28:43.940Z,15.40
2022-08-28T12:31:13.655Z,17.23
2022-08-28T12:33:47.478Z,17.30
2022-08-28T12:36:26.730Z,19.83
2022-08-28T12:38:58.530Z,15.88
2022-08-28T12:41:27.195Z,14.20
2022-08-28T12:43:58.495Z,17.33
2022-08-28T12:46:31.244Z,21.40
2022-08-28T12:49:25.666Z,23.10
2022-08-28T12:52:17.834Z,16.70
2022-08-28T12:54:46.735Z,14.63
2022-08-28T12:57:20.843Z,19.30
2022-08-28T12:59:50.968Z,15.07
2022-08-28T13:02:18.580Z,16.63
2022-08-28T13:04:57.589Z,18.70
2022-08-28T13:07:45.399Z,14.43
2022-08-28T13:10:24.172Z,14.82
2022-08-28T13:13:05.203Z,23.48
2022-08-28T13:15:56.487Z,17.45
2022-08-28T13:18:39.255Z,16.88
2022-08-28T13:21:32.704Z,15.70
2022-08-28T13:24:22.339Z,17.52
2022-08-28T13:27:13.956Z,17.52
2022-08-28T13:30:21.703Z,12.32
2022-08-28T13:33:01.382Z,18.92
2022-08-28T13:35:38.003Z,15.93
2022-08-28T13:38:11.938Z,12.55
2022-08-28T13:41:03.934Z,18.75
2022-08-28T13:43:44.814Z,14.07
2022-08-28T13:46:12.892Z,13.90
2022-08-28T13:48:40.496Z,18.33
2022-08-28T13:51:14.285Z,17.58
2022-08-28T13:53:50.019Z,17.88
2022-08-28T13:56:18.063Z,16.70
2022-08-28T13:58:47.801Z,13.82
2022-08-28T14:01:44.778Z,19.08
2022-08-28T14:04:13.329Z,16.80
2022-08-28T14:06:46.295Z,16.27
2022-08-28T14:09:17.497Z,21.52
2022-08-28T14:11:46.862Z,18.85
2022-08-28T14:14:14.427Z,12.30
2022-08-28T14:16:42.262Z,18.25
2022-08-28T14:19:09.886Z,12.02
2022-08-28T14:21:40.015Z,13.98
2022-08-28T14:24:08.062Z,25.45
2022-08-28T14:26:35.948Z,14.60
2022-08-28T14:29:06.618Z,16.23
2022-08-28T14:31:41.448Z,13.15
2022-08-28T14:34:16.412Z,18.55
2022-08-28T14:36:55.138Z,14.77
2022-08-28T14:39:26.845Z,14.32
2022-08-28T14:41:54.918Z,21.52
2022-08-28T14:44:24.518Z,19.02
2022-08-28T14:46:57.017Z,23.20
2022-08-28T14:49:26.653Z,25.60
2022-08-28T14:51:54.378Z,26.17
2022-08-28T14:54:24.840Z,18.38
2022-08-28T14:56:53.775Z,28.00
2022-08-28T14:59:27.648Z,28.65
2022-08-28T15:02:00.551Z,29.63
2022-08-28T15:04:34.806Z,29.27
2022-08-28T15:07:06.254Z,31.55
2022-08-28T15:09:41.799Z,24.85
2022-08-28T15:12:10.580Z,29.55
2022-08-28T15:14:38.316Z,31.27
2022-08-28T15:17:05.977Z,29.20
2022-08-28T15:19:33.728Z,37.72
2022-08-28T15:22:02.071Z,30.92
2022-08-28T15:24:33.177Z,28.80
2022-08-28T15:27:01.742Z,30.73
2022-08-28T15:29:30.121Z,34.08
2022-08-28T15:31:58.537Z,34.40
2022-08-28T15:34:28.455Z,31.67
2022-08-28T15:36:57.565Z,30.65
2022-08-28T15:39:45.574Z,33.85
2022-08-28T15:42:16.185Z,34.85
2022-08-28T15:44:44.082Z,40.45
2022-08-28T15:47:13.818Z,35.60
2022-08-28T15:49:47.511Z,36.78
2022-08-28T15:52:18.850Z,38.38
2022-08-28T15:54:47.537Z,32.80
2022-08-28T15:57:15.169Z,37.13
2022-08-28T15:59:49.923Z,40.30
2022-08-28T16:02:23.293Z,50.70
2022-08-28T16:04:52.100Z,41.53
2022-08-28T16:07:21.062Z,39.15
2022-08-28T16:09:52.279Z,41.08
2022-08-28T16:12:20.625Z,35.50
2022-08-28T16:14:48.868Z,45.28
2022-08-28T16:17:16.506Z,40.38
2022-08-28T16:19:45.088Z,39.67
2022-08-28T16:22:16.058Z,47.83
2022-08-28T16:24:44.512Z,45.83
2022-08-28T16:27:15.379Z,46.65
2022-08-28T16:29:44.853Z,47.63
2022-08-28T16:32:12.740Z,43.35
2022-08-28T16:34:40.291Z,48.65
2022-08-28T16:37:08.198Z,44.42
2022-08-28T16:39:36.815Z,45.35
2022-08-28T16:42:04.672Z,39.92
2022-08-28T16:44:32.528Z,43.35
2022-08-28T16:47:00.398Z,49.58
2022-08-28T16:49:30.498Z,51.13
2022-08-28T16:51:58.105Z,46.83
2022-08-28T16:54:25.696Z,52.17
2022-08-28T16:56:53.354Z,53.28
2022-08-28T16:59:23.534Z,51.88
2022-08-28T17:01:53.886Z,50.35
2022-08-28T17:04:22.448Z,50.63
2022-08-28T17:06:50.068Z,52.78
2022-08-28T17:09:21.140Z,59.72
2022-08-28T17:11:51.735Z,54.30
2022-08-28T17:14:21.997Z,55.08
2022-08-28T17:16:49.942Z,56.13
2022-08-28T17:19:18.862Z,51.88
2022-08-28T17:22:04.825Z,59.35
2022-08-28T17:24:32.386Z,63.75
2022-08-28T17:27:05.133Z,66.15
2022-08-28T17:29:38.510Z,60.88
2022-08-28T17:32:07.887Z,70.25
2022-08-28T17:34:36.101Z,75.45
2022-08-28T17:37:04.682Z,71.43
2022-08-28T17:39:32.590Z,71.25
2022-08-28T17:42:00.204Z,79.90
2022-08-28T17:44:28.320Z,75.07
2022-08-28T17:46:56.042Z,82.05
2022-08-28T17:49:23.679Z,82.32
2022-08-28T17:51:51.326Z,84.97
2022-08-28T17:54:21.814Z,82.05
2022-08-28T17:56:50.393Z,81.95
2022-08-28T17:59:18.955Z,84.35
2022-08-28T18:01:46.971Z,87.57
2022-08-28T18:04:22.989Z,90.18
2022-08-28T18:06:54.627Z,86.93
2022-08-28T18:09:25.447Z,106.97
2022-08-28T18:11:53.130Z,103.95
2022-08-28T18:14:21.443Z,96.72
2022-08-28T18:16:49.260Z,95.90
2022-08-28T18:19:17.015Z,103.63
2022-08-28T18:21:44.962Z,102.28
2022-08-28T18:24:13.214Z,97.57
2022-08-28T18:26:42.849Z,92.95
2022-08-28T18:29:14.454Z,86.80
2022-08-28T18:31:43.229Z,91.45
2022-08-28T18:34:11.085Z,94.40
2022-08-28T18:36:44.506Z,91.35
2022-08-28T18:39:15.166Z,86.57
2022-08-28T18:41:50.421Z,86.38
2022-08-28T18:44:22.397Z,87.13
2022-08-28T18:46:51.942Z,84.72
2022-08-28T18:49:19.497Z,81.43
2022-08-28T18:51:47.007Z,85.43
2022-08-28T18:54:21.986Z,75.72
2022-08-28T18:56:50.691Z,74.50
2022-08-28T18:59:18.445Z,75.75
2022-08-28T19:01:46.295Z,73.28
2022-08-28T19:04:13.862Z,71.93
2022-08-28T19:06:42.057Z,75.35
2022-08-28T19:09:19.179Z,69.38
2022-08-28T19:11:48.739Z,63.17
2022-08-28T19:14:16.639Z,68.63
2022-08-28T19:16:44.519Z,74.90
2022-08-28T19:19:12.257Z,59.13
2022-08-28T19:21:39.994Z,63.17
2022-08-28T19:24:07.930Z,62.00
2022-08-28T19:26:36.636Z,65.07
2022-08-28T19:29:04.771Z,62.88
2022-08-28T19:31:34.024Z,61.15
2022-08-28T19:34:02.564Z,62.17
2022-08-28T19:36:35.671Z,54.53
2022-08-28T19:39:03.758Z,58.22
2022-08-28T19:41:32.518Z,54.40
2022-08-28T19:44:02.428Z,58.50
2022-08-28T19:46:30.491Z,51.50
2022-08-28T19:48:58.588Z,53.40
2022-08-28T19:51:26.122Z,51.50
2022-08-28T19:53:58.301Z,50.65
2022-08-28T19:56:28.599Z,58.25
2022-08-28T19:58:59.220Z,54.05
2022-08-28T20:01:31.586Z,51.55
2022-08-28T20:04:00.318Z,50.80
2022-08-28T20:06:31.105Z,49.75
2022-08-28T20:08:59.084Z,47.88
2022-08-28T20:11:30.683Z,52.55
2022-08-28T20:14:04.424Z,47.55
2022-08-28T20:16:35.699Z,43.90
2022-08-28T20:19:05.082Z,45.65
2022-08-28T20:21:37.087Z,45.58
2022-08-28T20:24:10.672Z,49.47
2022-08-28T20:26:43.524Z,47.58
2022-08-28T20:29:14.875Z,50.28
2022-08-28T20:31:47.319Z,51.10
2022-08-28T20:34:19.422Z,53.42
2022-08-28T20:36:47.826Z,48.97
2022-08-28T20:39:19.363Z,44.17
2022-08-28T20:41:47.818Z,47.95
2022-08-28T20:44:18.165Z,42.83
2022-08-28T20:46:50.983Z,40.50
2022-08-28T20:49:22.282Z,46.72
2022-08-28T20:51:53.474Z,49.08
2022-08-28T20:54:37.081Z,43.95
2022-08-28T20:57:16.864Z,41.15
2022-08-28T20:59:47.839Z,41.80
2022-08-28T21:02:22.759Z,42.13
2022-08-28T21:04:50.731Z,36.25
2022-08-28T21:07:23.895Z,35.58
2022-08-28T21:10:05.204Z,39.20
2022-08-28T21:12:37.061Z,41.92
2022-08-28T21:15:08.546Z,37.88
2022-08-28T21:17:36.188Z,41.92
2022-08-28T21:20:10.420Z,40.67
2022-08-28T21:22:39.091Z,34.72
2022-08-28T21:25:08.644Z,44.75
2022-08-28T21:27:37.036Z,38.50
2022-08-28T21:30:07.020Z,44.72
2022-08-28T21:32:35.170Z,37.67
2022-08-28T21:35:04.325Z,37.88
2022-08-28T21:37:32.264Z,36.20
2022-08-28T21:40:00.915Z,40.67
2022-08-28T21:42:29.433Z,43.92
2022-08-28T21:44:57.009Z,35.53
2022-08-28T21:47:25.463Z,41.15
2022-08-28T21:49:55.417Z,39.50
2022-08-28T21:52:26.316Z,35.85
2022-08-28T21:55:15.055Z,47.13
2022-08-28T21:57:43.201Z,41.42
2022-08-28T22:00:17.465Z,44.08
2022-08-28T22:02:45.650Z,49.10
2022-08-28T22:05:14.730Z,49.47
2022-08-28T22:07:42.622Z,39.83
2022-08-28T22:10:10.761Z,43.17
2022-08-28T22:12:38.324Z,49.40
2022-08-28T22:15:06.273Z,44.05
2022-08-28T22:17:33.826Z,50.38
2022-08-28T22:20:06.189Z,41.88
2022-08-28T22:22:52.371Z,38.95
2022-08-28T22:25:20.088Z,43.40
2022-08-28T22:27:47.714Z,35.83
2022-08-28T22:30:19.787Z,38.53
2022-08-28T22:32:47.310Z,45.25
2022-08-28T22:35:14.875Z,42.05
2022-08-28T22:37:42.752Z,42.17
2022-08-28T22:40:13.196Z,43.72
2022-08-28T22:42:41.352Z,44.40
2022-08-28T22:45:09.830Z,43.47
2022-08-28T22:47:37.722Z,42.95
2022-08-28T22:50:06.121Z,41.10
2022-08-28T22:52:33.829Z,39.75
2022-08-28T22:55:01.901Z,42.40
2022-08-28T22:57:31.094Z,42.05
2022-08-28T23:00:01.557Z,37.63
2022-08-28T23:02:31.162Z,41.92
2022-08-28T23:04:58.693Z,47.38
2022-08-28T23:07:26.334Z,46.55
2022-08-28T23:09:53.829Z,43.08
2022-08-28T23:12:21.590Z,41.10
2022-08-28T23:14:49.103Z,40.80
2022-08-28T23:17:18.739Z,41.22
2022-08-28T23:19:48.224Z,51.88
2022-08-28T23:22:17.479Z,43.13
2022-08-28T23:24:47.058Z,41.75
2022-08-28T23:27:38.962Z,54.30
2022-08-28T23:30:07.603Z,48.20
2022-08-28T23:32:35.518Z,49.83
2022-08-28T23:35:05.491Z,47.95
2022-08-28T23:37:35.932Z,45.53
2022-08-28T23:40:07.939Z,41.92
2022-08-28T23:42:36.848Z,39.92
2022-08-28T23:45:05.339Z,44.58
2022-08-28T23:47:33.150Z,42.67
2022-08-28T23:50:00.972Z,46.70
2022-08-28T23:52:31.825Z,46.28
2022-08-28T23:55:00.501Z,43.22
2022-08-28T23:57:28.196Z,45.40
2022-08-28T23:59:55.814Z,46.05
